sensor_id;sensor_type;location;lat;lon;timestamp;pressure;altitude;pressure_sealevel;temperature;humidity
56894;BME280;43392;50.078;13.704;2023-01-15T00:01:04;95864.22;;;6.70;86.30
56894;BME280;43392;50.078;13.704;2023-01-15T00:03:32;95859.41;;;6.72;86.26
56894;BME280;43392;50.078;13.704;2023-01-15T00:06:01;95844.50;;;6.71;86.35
56894;BME280;43392;50.078;13.704;2023-01-15T00:08:28;95853.03;;;6.73;86.15
56894;BME280;43392;50.078;13.704;2023-01-15T00:10:55;95836.25;;;6.73;87.09
56894;BME280;43392;50.078;13.704;2023-01-15T00:13:21;95838.63;;;6.74;86.62
56894;BME280;43392;50.078;13.704;2023-01-15T00:15:48;95844.22;;;6.73;86.38
56894;BME280;43392;50.078;13.704;2023-01-15T00:18:14;95836.47;;;6.76;86.66
56894;BME280;43392;50.078;13.704;2023-01-15T00:20:42;95841.53;;;6.78;86.85
56894;BME280;43392;50.078;13.704;2023-01-15T00:23:09;95842.06;;;6.80;86.73
56894;BME280;43392;50.078;13.704;2023-01-15T00:25:56;95829.25;;;6.82;86.73
56894;BME280;43392;50.078;13.704;2023-01-15T00:28:40;95834.03;;;6.85;86.98
56894;BME280;43392;50.078;13.704;2023-01-15T00:31:06;95822.25;;;6.86;86.89
56894;BME280;43392;50.078;13.704;2023-01-15T00:33:33;95827.59;;;6.86;86.86
56894;BME280;43392;50.078;13.704;2023-01-15T00:36:01;95812.91;;;6.88;86.68
56894;BME280;43392;50.078;13.704;2023-01-15T00:38:27;95808.69;;;6.87;86.93
56894;BME280;43392;50.078;13.704;2023-01-15T00:40:54;95811.56;;;6.91;86.97
56894;BME280;43392;50.078;13.704;2023-01-15T00:43:20;95815.03;;;6.91;86.94
56894;BME280;43392;50.078;13.704;2023-01-15T00:45:47;95806.75;;;6.93;87.08
56894;BME280;43392;50.078;13.704;2023-01-15T00:48:13;95812.38;;;6.91;87.11
56894;BME280;43392;50.078;13.704;2023-01-15T00:50:40;95809.94;;;6.95;87.28
56894;BME280;43392;50.078;13.704;2023-01-15T00:53:08;95802.72;;;6.95;87.17
56894;BME280;43392;50.078;13.704;2023-01-15T00:55:34;95794.97;;;6.99;87.02
56894;BME280;43392;50.078;13.704;2023-01-15T00:58:01;95791.25;;;7.00;87.28
56894;BME280;43392;50.078;13.704;2023-01-15T01:00:27;95789.09;;;7.02;87.45
56894;BME280;43392;50.078;13.704;2023-01-15T01:02:55;95788.50;;;7.05;87.21
56894;BME280;43392;50.078;13.704;2023-01-15T01:05:22;95794.38;;;7.07;87.13
56894;BME280;43392;50.078;13.704;2023-01-15T01:07:48;95797.56;;;7.09;87.03
56894;BME280;43392;50.078;13.704;2023-01-15T01:10:16;95792.75;;;7.11;87.18
56894;BME280;43392;50.078;13.704;2023-01-15T01:12:43;95795.91;;;7.13;87.09
56894;BME280;43392;50.078;13.704;2023-01-15T01:15:10;95791.09;;;7.15;87.00
56894;BME280;43392;50.078;13.704;2023-01-15T01:17:36;95786.28;;;7.17;87.07
56894;BME280;43392;50.078;13.704;2023-01-15T01:20:04;95765.47;;;7.19;87.12
56894;BME280;43392;50.078;13.704;2023-01-15T01:22:31;95765.97;;;7.21;86.91
56894;BME280;43392;50.078;13.704;2023-01-15T01:24:58;95756.88;;;7.22;87.15
56894;BME280;43392;50.078;13.704;2023-01-15T01:27:26;95759.28;;;7.23;86.78
56894;BME280;43392;50.078;13.704;2023-01-15T01:29:52;95772.31;;;7.25;87.01
56894;BME280;43392;50.078;13.704;2023-01-15T01:32:19;95763.25;;;7.26;86.81
56894;BME280;43392;50.078;13.704;2023-01-15T01:34:45;95757.38;;;7.29;86.72
56894;BME280;43392;50.078;13.704;2023-01-15T01:37:12;95748.78;;;7.32;86.70
56894;BME280;43392;50.078;13.704;2023-01-15T01:39:38;95748.78;;;7.32;86.42
56894;BME280;43392;50.078;13.704;2023-01-15T01:42:10;95740.53;;;7.33;86.61
56894;BME280;43392;50.078;13.704;2023-01-15T01:45:09;95739.41;;;7.34;86.60
56894;BME280;43392;50.078;13.704;2023-01-15T01:47:42;95745.56;;;7.35;86.47
56894;BME280;43392;50.078;13.704;2023-01-15T01:50:11;95732.72;;;7.37;86.50
56894;BME280;43392;50.078;13.704;2023-01-15T01:52:42;95734.31;;;7.38;86.64
56894;BME280;43392;50.078;13.704;2023-01-15T01:55:11;95732.16;;;7.40;86.75
56894;BME280;43392;50.078;13.704;2023-01-15T01:57:39;95723.09;;;7.41;86.53
56894;BME280;43392;50.078;13.704;2023-01-15T02:00:09;95731.59;;;7.43;86.53
56894;BME280;43392;50.078;13.704;2023-01-15T02:02:39;95718.28;;;7.43;86.49
56894;BME280;43392;50.078;13.704;2023-01-15T02:05:07;95709.97;;;7.45;86.40
56894;BME280;43392;50.078;13.704;2023-01-15T02:07:34;95711.56;;;7.46;86.75
56894;BME280;43392;50.078;13.704;2023-01-15T02:10:01;95717.69;;;7.46;86.62
56894;BME280;43392;50.078;13.704;2023-01-15T02:12:34;95709.41;;;7.48;86.81
56894;BME280;43392;50.078;13.704;2023-01-15T02:15:06;95691.53;;;7.48;87.08
56894;BME280;43392;50.078;13.704;2023-01-15T02:17:43;95693.66;;;7.46;87.23
56894;BME280;43392;50.078;13.704;2023-01-15T02:20:21;95685.97;;;7.45;87.48
56894;BME280;43392;50.078;13.704;2023-01-15T02:23:00;95684.38;;;7.44;87.68
56894;BME280;43392;50.078;13.704;2023-01-15T02:25:33;95687.03;;;7.44;87.58
56894;BME280;43392;50.078;13.704;2023-01-15T02:28:09;95682.22;;;7.46;87.61
56894;BME280;43392;50.078;13.704;2023-01-15T02:30:41;95676.91;;;7.46;87.83
56894;BME280;43392;50.078;13.704;2023-01-15T02:33:11;95671.28;;;7.47;87.86
56894;BME280;43392;50.078;13.704;2023-01-15T02:35:43;95669.09;;;7.49;87.57
56894;BME280;43392;50.078;13.704;2023-01-15T02:38:13;95665.63;;;7.49;87.89
56894;BME280;43392;50.078;13.704;2023-01-15T02:40:41;95674.44;;;7.49;87.88
56894;BME280;43392;50.078;13.704;2023-01-15T02:43:12;95669.41;;;7.48;88.02
56894;BME280;43392;50.078;13.704;2023-01-15T02:45:41;95667.53;;;7.48;88.42
56894;BME280;43392;50.078;13.704;2023-01-15T02:48:11;95657.69;;;7.44;88.47
56894;BME280;43392;50.078;13.704;2023-01-15T02:50:41;95664.34;;;7.46;88.61
56894;BME280;43392;50.078;13.704;2023-01-15T02:53:15;95666.22;;;7.46;88.51
56894;BME280;43392;50.078;13.704;2023-01-15T02:55:47;95660.09;;;7.45;88.97
56894;BME280;43392;50.078;13.704;2023-01-15T02:58:19;95652.38;;;7.44;88.97
56894;BME280;43392;50.078;13.704;2023-01-15T03:00:48;95641.69;;;7.44;88.81
56894;BME280;43392;50.078;13.704;2023-01-15T03:03:21;95632.94;;;7.43;89.37
56894;BME280;43392;50.078;13.704;2023-01-15T03:05:53;95632.94;;;7.43;89.14
56894;BME280;43392;50.078;13.704;2023-01-15T03:08:23;95620.97;;;7.41;89.36
56894;BME280;43392;50.078;13.704;2023-01-15T03:10:54;95612.16;;;7.40;89.36
56894;BME280;43392;50.078;13.704;2023-01-15T03:13:32;95619.66;;;7.38;89.46
56894;BME280;43392;50.078;13.704;2023-01-15T03:16:07;95619.66;;;7.38;89.51
56894;BME280;43392;50.078;13.704;2023-01-15T03:19:01;95609.78;;;7.39;89.30
56894;BME280;43392;50.078;13.704;2023-01-15T03:21:32;95615.41;;;7.37;89.33
56894;BME280;43392;50.078;13.704;2023-01-15T03:24:04;95618.84;;;7.38;89.33
56894;BME280;43392;50.078;13.704;2023-01-15T03:26:31;95614.31;;;7.38;89.17
56894;BME280;43392;50.078;13.704;2023-01-15T03:29:02;95602.84;;;7.38;88.77
56894;BME280;43392;50.078;13.704;2023-01-15T03:31:30;95600.19;;;7.38;88.73
56894;BME280;43392;50.078;13.704;2023-01-15T03:33:57;95599.41;;;7.37;88.53
56894;BME280;43392;50.078;13.704;2023-01-15T03:36:23;95613.22;;;7.39;88.09
56894;BME280;43392;50.078;13.704;2023-01-15T03:38:50;95618.56;;;7.39;87.71
56894;BME280;43392;50.078;13.704;2023-01-15T03:41:22;95620.16;;;7.40;87.52
56894;BME280;43392;50.078;13.704;2023-01-15T03:43:56;95609.50;;;7.40;87.29
56894;BME280;43392;50.078;13.704;2023-01-15T03:46:48;95601.50;;;7.40;87.01
56894;BME280;43392;50.078;13.704;2023-01-15T03:49:22;95584.13;;;7.43;86.57
56894;BME280;43392;50.078;13.704;2023-01-15T03:51:57;95586.22;;;7.46;86.05
56894;BME280;43392;50.078;13.704;2023-01-15T03:54:33;95596.28;;;7.49;86.00
56894;BME280;43392;50.078;13.704;2023-01-15T03:57:05;95588.28;;;7.49;85.61
56894;BME280;43392;50.078;13.704;2023-01-15T03:59:35;95594.16;;;7.51;85.40
56894;BME280;43392;50.078;13.704;2023-01-15T04:02:07;95584.25;;;7.51;85.41
56894;BME280;43392;50.078;13.704;2023-01-15T04:04:37;95584.25;;;7.51;85.06
56894;BME280;43392;50.078;13.704;2023-01-15T04:07:05;95574.38;;;7.52;85.05
56894;BME280;43392;50.078;13.704;2023-01-15T04:09:36;95589.50;;;7.56;84.36
56894;BME280;43392;50.078;13.704;2023-01-15T04:12:03;95553.28;;;7.55;84.63
56894;BME280;43392;50.078;13.704;2023-01-15T04:14:31;95571.66;;;7.57;84.18
56894;BME280;43392;50.078;13.704;2023-01-15T04:16:58;95578.28;;;7.59;84.15
56894;BME280;43392;50.078;13.704;2023-01-15T04:19:26;95576.09;;;7.61;83.83
56894;BME280;43392;50.078;13.704;2023-01-15T04:21:52;95576.59;;;7.63;83.80
56894;BME280;43392;50.078;13.704;2023-01-15T04:24:19;95576.34;;;7.65;83.45
56894;BME280;43392;50.078;13.704;2023-01-15T04:26:45;95566.97;;;7.67;83.25
56894;BME280;43392;50.078;13.704;2023-01-15T04:29:12;95574.66;;;7.69;83.10
56894;BME280;43392;50.078;13.704;2023-01-15T04:31:39;95570.63;;;7.71;83.01
56894;BME280;43392;50.078;13.704;2023-01-15T04:34:05;95556.22;;;7.72;82.70
56894;BME280;43392;50.078;13.704;2023-01-15T04:36:33;95556.22;;;7.72;82.60
56894;BME280;43392;50.078;13.704;2023-01-15T04:39:00;95558.88;;;7.72;82.83
56894;BME280;43392;50.078;13.704;2023-01-15T04:41:27;95552.44;;;7.73;82.78
56894;BME280;43392;50.078;13.704;2023-01-15T04:44:11;95544.72;;;7.72;82.61
56894;BME280;43392;50.078;13.704;2023-01-15T04:46:39;95541.56;;;7.70;82.44
56894;BME280;43392;50.078;13.704;2023-01-15T04:49:08;95539.91;;;7.74;82.28
56894;BME280;43392;50.078;13.704;2023-01-15T04:51:36;95531.09;;;7.73;82.31
56894;BME280;43392;50.078;13.704;2023-01-15T04:54:04;95535.34;;;7.74;82.45
56894;BME280;43392;50.078;13.704;2023-01-15T04:56:31;95529.53;;;7.72;82.44
56894;BME280;43392;50.078;13.704;2023-01-15T04:59:02;95536.16;;;7.75;82.33
56894;BME280;43392;50.078;13.704;2023-01-15T05:01:29;95536.16;;;7.75;82.11
56894;BME280;43392;50.078;13.704;2023-01-15T05:03:56;95524.69;;;7.74;82.00
56894;BME280;43392;50.078;13.704;2023-01-15T05:06:23;95528.16;;;7.75;82.05
56894;BME280;43392;50.078;13.704;2023-01-15T05:08:51;95527.84;;;7.76;82.15
56894;BME280;43392;50.078;13.704;2023-01-15T05:11:17;95524.38;;;7.76;82.07
56894;BME280;43392;50.078;13.704;2023-01-15T05:13:44;95524.88;;;7.78;82.08
56894;BME280;43392;50.078;13.704;2023-01-15T05:16:12;95525.69;;;7.78;81.91
56894;BME280;43392;50.078;13.704;2023-01-15T05:18:40;95537.94;;;7.79;81.94
56894;BME280;43392;50.078;13.704;2023-01-15T05:21:12;95533.69;;;7.78;81.80
56894;BME280;43392;50.078;13.704;2023-01-15T05:23:39;95530.44;;;7.81;81.68
56894;BME280;43392;50.078;13.704;2023-01-15T05:26:07;95531.22;;;7.82;81.76
56894;BME280;43392;50.078;13.704;2023-01-15T05:28:34;95533.09;;;7.81;81.53
56894;BME280;43392;50.078;13.704;2023-01-15T05:31:05;95534.66;;;7.82;81.04
56894;BME280;43392;50.078;13.704;2023-01-15T05:33:32;95528.25;;;7.83;81.55
56894;BME280;43392;50.078;13.704;2023-01-15T05:36:00;95520.25;;;7.83;81.54
56894;BME280;43392;50.078;13.704;2023-01-15T05:38:27;95519.94;;;7.85;81.33
56894;BME280;43392;50.078;13.704;2023-01-15T05:40:53;95517.00;;;7.86;81.18
56894;BME280;43392;50.078;13.704;2023-01-15T05:43:21;95511.66;;;7.86;81.56
56894;BME280;43392;50.078;13.704;2023-01-15T05:45:48;95526.31;;;7.89;81.27
56894;BME280;43392;50.078;13.704;2023-01-15T05:48:15;95516.44;;;7.89;81.33
56894;BME280;43392;50.078;13.704;2023-01-15T05:50:41;95506.25;;;7.91;81.34
56894;BME280;43392;50.078;13.704;2023-01-15T05:53:08;95503.59;;;7.91;81.06
56894;BME280;43392;50.078;13.704;2023-01-15T05:55:34;95514.25;;;7.91;81.25
56894;BME280;43392;50.078;13.704;2023-01-15T05:58:01;95505.16;;;7.92;81.39
56894;BME280;43392;50.078;13.704;2023-01-15T06:00:29;95505.63;;;7.94;81.26
56894;BME280;43392;50.078;13.704;2023-01-15T06:02:55;95500.03;;;7.96;81.04
56894;BME280;43392;50.078;13.704;2023-01-15T06:05:22;95498.66;;;7.98;81.18
56894;BME280;43392;50.078;13.704;2023-01-15T06:07:49;95499.72;;;7.97;81.00
56894;BME280;43392;50.078;13.704;2023-01-15T06:10:17;95495.50;;;7.96;81.23
56894;BME280;43392;50.078;13.704;2023-01-15T06:12:44;95490.16;;;7.96;81.33
56894;BME280;43392;50.078;13.704;2023-01-15T06:15:11;95471.75;;;7.95;81.31
56894;BME280;43392;50.078;13.704;2023-01-15T06:17:39;95461.38;;;7.93;81.28
56894;BME280;43392;50.078;13.704;2023-01-15T06:20:08;95465.59;;;7.94;81.25
56894;BME280;43392;50.078;13.704;2023-01-15T06:22:36;95478.19;;;7.94;81.28
56894;BME280;43392;50.078;13.704;2023-01-15T06:25:03;95475.03;;;7.92;81.23
56894;BME280;43392;50.078;13.704;2023-01-15T06:27:30;95461.38;;;7.93;81.26
56894;BME280;43392;50.078;13.704;2023-01-15T06:29:57;95461.38;;;7.93;81.35
56894;BME280;43392;50.078;13.704;2023-01-15T06:32:24;95453.38;;;7.93;81.57
56894;BME280;43392;50.078;13.704;2023-01-15T06:34:52;95455.53;;;7.91;81.49
56894;BME280;43392;50.078;13.704;2023-01-15T06:37:19;95451.28;;;7.90;81.56
56894;BME280;43392;50.078;13.704;2023-01-15T06:39:45;95458.47;;;7.90;81.66
56894;BME280;43392;50.078;13.704;2023-01-15T06:42:12;95457.72;;;7.89;81.62
56894;BME280;43392;50.078;13.704;2023-01-15T06:44:56;95463.81;;;7.90;81.82
56894;BME280;43392;50.078;13.704;2023-01-15T06:47:40;95459.59;;;7.89;81.66
56894;BME280;43392;50.078;13.704;2023-01-15T06:50:09;95467.59;;;7.89;81.82
56894;BME280;43392;50.078;13.704;2023-01-15T06:52:36;95476.41;;;7.89;81.69
56894;BME280;43392;50.078;13.704;2023-01-15T06:55:03;95477.16;;;7.90;81.80
56894;BME280;43392;50.078;13.704;2023-01-15T06:57:30;95474.81;;;7.88;81.77
56894;BME280;43392;50.078;13.704;2023-01-15T06:59:56;95469.97;;;7.90;81.96
56894;BME280;43392;50.078;13.704;2023-01-15T07:02:23;95482.22;;;7.91;81.70
56894;BME280;43392;50.078;13.704;2023-01-15T07:04:50;95488.38;;;7.92;81.70
56894;BME280;43392;50.078;13.704;2023-01-15T07:07:19;95483.78;;;7.92;81.91
56894;BME280;43392;50.078;13.704;2023-01-15T07:09:46;95485.41;;;7.93;81.74
56894;BME280;43392;50.078;13.704;2023-01-15T07:12:12;95498.44;;;7.95;81.58
56894;BME280;43392;50.078;13.704;2023-01-15T07:14:39;95493.59;;;7.97;81.87
56894;BME280;43392;50.078;13.704;2023-01-15T07:17:05;95489.03;;;7.97;81.49
56894;BME280;43392;50.078;13.704;2023-01-15T07:19:32;95491.44;;;7.99;81.68
56894;BME280;43392;50.078;13.704;2023-01-15T07:21:58;95477.28;;;7.98;81.48
56894;BME280;43392;50.078;13.704;2023-01-15T07:24:26;95477.28;;;7.98;81.53
56894;BME280;43392;50.078;13.704;2023-01-15T07:26:53;95483.13;;;8.00;81.42
56894;BME280;43392;50.078;13.704;2023-01-15T07:29:20;95469.47;;;8.02;81.29
56894;BME280;43392;50.078;13.704;2023-01-15T07:31:47;95453.97;;;8.04;81.28
56894;BME280;43392;50.078;13.704;2023-01-15T07:34:14;95446.47;;;8.06;81.07
56894;BME280;43392;50.078;13.704;2023-01-15T07:36:40;95440.94;;;8.16;81.07
56894;BME280;43392;50.078;13.704;2023-01-15T07:39:09;95463.28;;;8.20;80.65
56894;BME280;43392;50.078;13.704;2023-01-15T07:41:38;95451.78;;;8.20;80.51
56894;BME280;43392;50.078;13.704;2023-01-15T07:44:18;95449.91;;;8.20;80.57
56894;BME280;43392;50.078;13.704;2023-01-15T07:47:06;95448.06;;;8.21;80.61
56894;BME280;43392;50.078;13.704;2023-01-15T07:49:56;95454.69;;;8.23;80.23
56894;BME280;43392;50.078;13.704;2023-01-15T07:52:23;95454.38;;;8.25;80.20
56894;BME280;43392;50.078;13.704;2023-01-15T07:54:49;95475.47;;;8.26;80.27
56894;BME280;43392;50.078;13.704;2023-01-15T07:57:19;95467.16;;;8.28;80.13
56894;BME280;43392;50.078;13.704;2023-01-15T07:59:47;95465.28;;;8.28;80.25
56894;BME280;43392;50.078;13.704;2023-01-15T08:02:13;95483.09;;;8.33;80.22
56894;BME280;43392;50.078;13.704;2023-01-15T08:04:40;95473.38;;;8.37;80.06
56894;BME280;43392;50.078;13.704;2023-01-15T08:07:07;95467.47;;;8.40;79.97
56894;BME280;43392;50.078;13.704;2023-01-15T08:09:34;95434.69;;;8.21;79.49
56894;BME280;43392;50.078;13.704;2023-01-15T08:12:01;95458.25;;;8.46;79.53
56894;BME280;43392;50.078;13.704;2023-01-15T08:14:47;95451.25;;;8.50;79.68
56894;BME280;43392;50.078;13.704;2023-01-15T08:17:32;95444.00;;;8.50;79.58
56894;BME280;43392;50.078;13.704;2023-01-15T08:19:59;95458.63;;;8.53;79.52
56894;BME280;43392;50.078;13.704;2023-01-15T08:22:26;95459.91;;;8.55;79.34
56894;BME280;43392;50.078;13.704;2023-01-15T08:24:52;95453.66;;;8.60;79.14
56894;BME280;43392;50.078;13.704;2023-01-15T08:27:19;95462.69;;;8.64;79.29
56894;BME280;43392;50.078;13.704;2023-01-15T08:29:47;95469.00;;;8.68;78.96
56894;BME280;43392;50.078;13.704;2023-01-15T08:32:13;95465.25;;;8.69;79.23
56894;BME280;43392;50.078;13.704;2023-01-15T08:34:40;95469.81;;;8.68;79.22
56894;BME280;43392;50.078;13.704;2023-01-15T08:37:07;95482.06;;;8.69;79.28
56894;BME280;43392;50.078;13.704;2023-01-15T08:39:33;95478.81;;;8.73;79.13
56894;BME280;43392;50.078;13.704;2023-01-15T08:42:00;95488.09;;;8.75;78.81
56894;BME280;43392;50.078;13.704;2023-01-15T08:44:27;95490.19;;;8.78;78.73
56894;BME280;43392;50.078;13.704;2023-01-15T08:46:55;95488.00;;;8.80;78.66
56894;BME280;43392;50.078;13.704;2023-01-15T08:49:21;95494.31;;;8.84;78.84
56894;BME280;43392;50.078;13.704;2023-01-15T08:51:49;95482.25;;;8.87;78.88
56894;BME280;43392;50.078;13.704;2023-01-15T08:54:18;95500.34;;;8.90;78.56
56894;BME280;43392;50.078;13.704;2023-01-15T08:56:45;95483.41;;;8.94;78.31
56894;BME280;43392;50.078;13.704;2023-01-15T08:59:12;95491.31;;;8.99;78.36
56894;BME280;43392;50.078;13.704;2023-01-15T09:01:39;95490.13;;;9.05;78.22
56894;BME280;43392;50.078;13.704;2023-01-15T09:04:08;95487.03;;;9.12;78.05
56894;BME280;43392;50.078;13.704;2023-01-15T09:06:35;95492.28;;;9.17;78.02
56894;BME280;43392;50.078;13.704;2023-01-15T09:09:01;95485.53;;;9.19;77.93
56894;BME280;43392;50.078;13.704;2023-01-15T09:11:28;95484.44;;;9.20;77.58
56894;BME280;43392;50.078;13.704;2023-01-15T09:13:54;95487.09;;;9.20;77.91
56894;BME280;43392;50.078;13.704;2023-01-15T09:16:21;95487.41;;;9.19;78.08
56894;BME280;43392;50.078;13.704;2023-01-15T09:18:48;95490.69;;;9.16;78.03
56894;BME280;43392;50.078;13.704;2023-01-15T09:21:16;95492.06;;;9.13;78.21
56894;BME280;43392;50.078;13.704;2023-01-15T09:23:42;95491.19;;;9.18;78.77
56894;BME280;43392;50.078;13.704;2023-01-15T09:26:25;95489.09;;;9.51;83.07
56894;BME280;43392;50.078;13.704;2023-01-15T09:28:53;95487.78;;;9.92;79.43
56894;BME280;43392;50.078;13.704;2023-01-15T09:31:19;95494.59;;;9.76;78.68
56894;BME280;43392;50.078;13.704;2023-01-15T09:33:46;95500.75;;;9.55;78.57
56894;BME280;43392;50.078;13.704;2023-01-15T09:36:16;95501.41;;;9.38;78.74
56894;BME280;43392;50.078;13.704;2023-01-15T09:38:44;95505.44;;;9.27;79.04
56894;BME280;43392;50.078;13.704;2023-01-15T09:41:11;95500.78;;;9.19;78.80
56894;BME280;43392;50.078;13.704;2023-01-15T09:44:07;95509.72;;;9.14;78.87
56894;BME280;43392;50.078;13.704;2023-01-15T09:46:39;95507.63;;;9.11;78.83
56894;BME280;43392;50.078;13.704;2023-01-15T09:49:16;95513.78;;;9.12;78.63
56894;BME280;43392;50.078;13.704;2023-01-15T09:51:56;95516.25;;;9.08;78.83
56894;BME280;43392;50.078;13.704;2023-01-15T09:54:41;95521.13;;;9.06;79.03
56894;BME280;43392;50.078;13.704;2023-01-15T09:57:11;95516.06;;;9.05;79.00
56894;BME280;43392;50.078;13.704;2023-01-15T09:59:40;95509.94;;;9.04;79.05
56894;BME280;43392;50.078;13.704;2023-01-15T10:02:19;95496.28;;;9.06;78.93
56894;BME280;43392;50.078;13.704;2023-01-15T10:04:48;95499.13;;;9.09;79.03
56894;BME280;43392;50.078;13.704;2023-01-15T10:07:23;95503.41;;;9.10;78.97
56894;BME280;43392;50.078;13.704;2023-01-15T10:09:57;95504.16;;;9.11;79.06
56894;BME280;43392;50.078;13.704;2023-01-15T10:12:26;95490.19;;;9.14;78.89
56894;BME280;43392;50.078;13.704;2023-01-15T10:15:13;95486.13;;;9.16;79.02
56894;BME280;43392;50.078;13.704;2023-01-15T10:17:41;95501.09;;;9.17;79.22
56894;BME280;43392;50.078;13.704;2023-01-15T10:20:13;95506.94;;;9.19;79.28
56894;BME280;43392;50.078;13.704;2023-01-15T10:22:57;95509.13;;;9.17;79.37
56894;BME280;43392;50.078;13.704;2023-01-15T10:25:32;95508.13;;;9.13;79.40
56894;BME280;43392;50.078;13.704;2023-01-15T10:28:07;95510.03;;;9.13;79.68
56894;BME280;43392;50.078;13.704;2023-01-15T10:30:41;95506.56;;;9.12;79.84
56894;BME280;43392;50.078;13.704;2023-01-15T10:33:24;95516.16;;;9.13;79.92
56894;BME280;43392;50.078;13.704;2023-01-15T10:35:59;95518.66;;;9.10;80.35
56894;BME280;43392;50.078;13.704;2023-01-15T10:38:32;95524.78;;;9.10;80.72
56894;BME280;43392;50.078;13.704;2023-01-15T10:41:25;95531.31;;;9.04;80.97
56894;BME280;43392;50.078;13.704;2023-01-15T10:43:59;95545.69;;;8.95;81.46
56894;BME280;43392;50.078;13.704;2023-01-15T10:46:30;95556.91;;;8.83;82.11
56894;BME280;43392;50.078;13.704;2023-01-15T10:49:04;95553.25;;;8.79;82.62
56894;BME280;43392;50.078;13.704;2023-01-15T10:51:39;95559.97;;;8.77;83.43
56894;BME280;43392;50.078;13.704;2023-01-15T10:54:13;95555.72;;;8.76;83.29
56894;BME280;43392;50.078;13.704;2023-01-15T10:56:45;95555.22;;;8.74;83.58
56894;BME280;43392;50.078;13.704;2023-01-15T10:59:14;95565.59;;;8.75;83.69
56894;BME280;43392;50.078;13.704;2023-01-15T11:01:42;95571.16;;;8.79;83.06
56894;BME280;43392;50.078;13.704;2023-01-15T11:04:09;95583.22;;;8.76;82.28
56894;BME280;43392;50.078;13.704;2023-01-15T11:06:37;95582.44;;;8.76;82.03
56894;BME280;43392;50.078;13.704;2023-01-15T11:09:04;95586.50;;;8.73;81.05
56894;BME280;43392;50.078;13.704;2023-01-15T11:11:35;95585.78;;;8.67;80.56
56894;BME280;43392;50.078;13.704;2023-01-15T11:14:35;95589.94;;;8.60;78.71
56894;BME280;43392;50.078;13.704;2023-01-15T11:17:20;95592.13;;;8.58;76.77
56894;BME280;43392;50.078;13.704;2023-01-15T11:20:13;95588.97;;;8.56;77.57
56894;BME280;43392;50.078;13.704;2023-01-15T11:22:42;95606.38;;;8.53;77.51
56894;BME280;43392;50.078;13.704;2023-01-15T11:25:09;95588.84;;;8.47;76.63
56894;BME280;43392;50.078;13.704;2023-01-15T11:27:38;95599.63;;;8.42;75.91
56894;BME280;43392;50.078;13.704;2023-01-15T11:30:24;95601.59;;;8.37;75.99
56894;BME280;43392;50.078;13.704;2023-01-15T11:32:54;95611.78;;;8.35;76.30
56894;BME280;43392;50.078;13.704;2023-01-15T11:35:20;95607.16;;;8.22;76.29
56894;BME280;43392;50.078;13.704;2023-01-15T11:37:47;95617.03;;;8.21;76.30
56894;BME280;43392;50.078;13.704;2023-01-15T11:40:15;95619.28;;;8.14;77.73
56894;BME280;43392;50.078;13.704;2023-01-15T11:42:46;95618.09;;;8.07;77.76
56894;BME280;43392;50.078;13.704;2023-01-15T11:45:30;95634.34;;;7.73;77.68
56894;BME280;43392;50.078;13.704;2023-01-15T11:48:16;95653.09;;;7.68;78.08
56894;BME280;43392;50.078;13.704;2023-01-15T11:51:05;95655.69;;;7.54;77.68
56894;BME280;43392;50.078;13.704;2023-01-15T11:53:37;95667.38;;;7.40;77.84
56894;BME280;43392;50.078;13.704;2023-01-15T11:56:10;95675.72;;;7.33;77.44
56894;BME280;43392;50.078;13.704;2023-01-15T11:58:42;95686.91;;;7.11;76.62
56894;BME280;43392;50.078;13.704;2023-01-15T12:01:13;95694.50;;;6.76;76.32
56894;BME280;43392;50.078;13.704;2023-01-15T12:03:46;95692.94;;;6.69;76.39
56894;BME280;43392;50.078;13.704;2023-01-15T12:06:13;95703.66;;;6.64;76.26
56894;BME280;43392;50.078;13.704;2023-01-15T12:08:45;95699.50;;;6.53;74.87
56894;BME280;43392;50.078;13.704;2023-01-15T12:11:37;95702.22;;;6.48;75.50
56894;BME280;43392;50.078;13.704;2023-01-15T12:14:34;95700.47;;;6.34;76.10
56894;BME280;43392;50.078;13.704;2023-01-15T12:17:15;95711.91;;;6.34;76.91
56894;BME280;43392;50.078;13.704;2023-01-15T12:19:50;95707.69;;;6.28;77.16
56894;BME280;43392;50.078;13.704;2023-01-15T12:22:33;95710.59;;;6.32;77.42
56894;BME280;43392;50.078;13.704;2023-01-15T12:25:22;95729.47;;;6.35;77.66
56894;BME280;43392;50.078;13.704;2023-01-15T12:27:54;95733.44;;;6.38;77.29
56894;BME280;43392;50.078;13.704;2023-01-15T12:30:28;95737.88;;;6.47;76.92
56894;BME280;43392;50.078;13.704;2023-01-15T12:33:04;95728.63;;;6.40;76.03
56894;BME280;43392;50.078;13.704;2023-01-15T12:35:37;95709.47;;;6.38;75.68
56894;BME280;43392;50.078;13.704;2023-01-15T12:38:12;95714.53;;;6.39;76.25
56894;BME280;43392;50.078;13.704;2023-01-15T12:40:46;95731.09;;;6.31;75.81
56894;BME280;43392;50.078;13.704;2023-01-15T12:43:18;95726.25;;;6.38;75.91
56894;BME280;43392;50.078;13.704;2023-01-15T12:46:08;95722.84;;;6.28;75.77
56894;BME280;43392;50.078;13.704;2023-01-15T12:48:39;95726.63;;;6.27;76.42
56894;BME280;43392;50.078;13.704;2023-01-15T12:51:13;95727.97;;;6.24;76.43
56894;BME280;43392;50.078;13.704;2023-01-15T12:53:44;95744.47;;;6.21;76.38
56894;BME280;43392;50.078;13.704;2023-01-15T12:56:18;95739.91;;;6.27;76.54
56894;BME280;43392;50.078;13.704;2023-01-15T12:58:49;95728.47;;;6.26;76.31
56894;BME280;43392;50.078;13.704;2023-01-15T13:01:20;95712.56;;;6.16;76.83
56894;BME280;43392;50.078;13.704;2023-01-15T13:03:57;95733.03;;;6.21;76.95
56894;BME280;43392;50.078;13.704;2023-01-15T13:06:25;95718.41;;;6.18;76.81
56894;BME280;43392;50.078;13.704;2023-01-15T13:08:56;95718.13;;;6.25;76.62
56894;BME280;43392;50.078;13.704;2023-01-15T13:11:25;95705.31;;;6.27;76.98
56894;BME280;43392;50.078;13.704;2023-01-15T13:13:52;95729.03;;;6.23;76.92
56894;BME280;43392;50.078;13.704;2023-01-15T13:16:36;95744.47;;;6.21;76.14
56894;BME280;43392;50.078;13.704;2023-01-15T13:19:19;95752.22;;;6.18;75.15